createdAt,value
2017-12-10T00:02:14.212Z,4.00
2017-12-10T00:04:42.234Z,4.55
2017-12-10T00:07:11.073Z,4.45
2017-12-10T00:09:39.137Z,4.57
2017-12-10T00:12:07.297Z,5.12
2017-12-10T00:14:35.381Z,4.53
2017-12-10T00:17:03.452Z,5.28
2017-12-10T00:19:31.526Z,5.20
2017-12-10T00:21:59.604Z,4.30
2017-12-10T00:24:27.670Z,4.60
2017-12-10T00:26:55.742Z,3.90
2017-12-10T00:29:23.797Z,3.87
2017-12-10T00:31:51.866Z,3.80
2017-12-10T00:34:19.986Z,3.40
2017-12-10T00:36:48.070Z,5.03
2017-12-10T00:39:16.024Z,3.78
2017-12-10T00:41:44.106Z,4.93
2017-12-10T00:44:12.210Z,4.25
2017-12-10T00:46:40.285Z,4.07
2017-12-10T00:49:08.365Z,4.65
2017-12-10T00:51:36.484Z,3.40
2017-12-10T00:54:04.529Z,4.03
2017-12-10T00:56:32.613Z,4.47
2017-12-10T00:59:00.734Z,3.90
2017-12-10T01:01:29.499Z,3.25
2017-12-10T01:03:57.569Z,4.82
2017-12-10T01:06:30.244Z,3.42
2017-12-10T01:08:58.763Z,4.05
2017-12-10T01:11:28.060Z,3.50
2017-12-10T01:13:56.971Z,3.65
2017-12-10T01:16:25.072Z,3.70
2017-12-10T01:18:53.146Z,4.03
2017-12-10T01:21:21.275Z,3.70
2017-12-10T01:23:49.413Z,3.60
2017-12-10T01:26:17.491Z,2.80
2017-12-10T01:28:45.589Z,3.53
2017-12-10T01:31:14.537Z,3.70
2017-12-10T01:33:42.577Z,3.80
2017-12-10T01:36:10.700Z,4.47
2017-12-10T01:38:38.793Z,3.33
2017-12-10T01:41:07.653Z,3.33
2017-12-10T01:43:35.768Z,3.40
2017-12-10T01:46:03.874Z,3.30
2017-12-10T01:48:31.965Z,3.03
2017-12-10T01:51:01.010Z,3.20
2017-12-10T01:53:29.741Z,4.00
2017-12-10T01:55:57.821Z,2.90
2017-12-10T01:58:25.983Z,2.80
2017-12-10T02:00:54.097Z,3.30
2017-12-10T02:03:22.868Z,2.72
2017-12-10T02:05:50.949Z,3.30
2017-12-10T02:08:19.821Z,2.95
2017-12-10T02:10:47.780Z,3.40
2017-12-10T02:13:15.868Z,3.33
2017-12-10T02:15:43.954Z,2.92
2017-12-10T02:18:13.374Z,3.22
2017-12-10T02:20:42.248Z,3.17
2017-12-10T02:23:11.103Z,3.05
2017-12-10T02:25:39.260Z,3.35
2017-12-10T02:28:07.469Z,2.45
2017-12-10T02:30:35.557Z,2.90
2017-12-10T02:33:04.429Z,3.30
2017-12-10T02:35:32.511Z,3.05
2017-12-10T02:38:00.616Z,2.70
2017-12-10T02:40:29.703Z,3.10
2017-12-10T02:42:58.562Z,2.85
2017-12-10T02:45:26.943Z,3.10
2017-12-10T02:47:55.132Z,2.35
2017-12-10T02:50:23.999Z,3.20
2017-12-10T02:52:52.729Z,2.58
2017-12-10T02:55:20.816Z,2.20
2017-12-10T02:57:49.844Z,2.60
2017-12-10T03:00:18.897Z,3.15
2017-12-10T03:02:47.008Z,2.80
2017-12-10T03:05:15.132Z,2.87
2017-12-10T03:07:44.715Z,2.37
2017-12-10T03:10:13.367Z,2.20
2017-12-10T03:12:41.463Z,2.28
2017-12-10T03:15:09.569Z,2.67
2017-12-10T03:17:39.345Z,2.97
2017-12-10T03:20:08.694Z,2.70
2017-12-10T03:22:37.112Z,2.50
2017-12-10T03:25:05.437Z,2.45
2017-12-10T03:27:34.984Z,2.42
2017-12-10T03:30:03.823Z,2.60
2017-12-10T03:32:33.232Z,2.90
2017-12-10T03:35:02.079Z,2.75
2017-12-10T03:37:30.190Z,2.42
2017-12-10T03:39:59.949Z,2.00
2017-12-10T03:42:28.791Z,2.25
2017-12-10T03:44:57.669Z,4.40
2017-12-10T03:47:25.780Z,3.17
2017-12-10T03:49:54.713Z,2.65
2017-12-10T03:52:22.786Z,2.78
2017-12-10T03:54:51.732Z,2.28
2017-12-10T03:57:19.827Z,2.20
2017-12-10T03:59:47.873Z,3.17
2017-12-10T04:02:15.992Z,2.62
2017-12-10T04:04:44.797Z,2.30
2017-12-10T04:07:13.774Z,2.45
2017-12-10T04:09:42.734Z,2.90
2017-12-10T04:12:10.796Z,2.65
2017-12-10T04:14:38.884Z,2.35
2017-12-10T04:17:07.973Z,2.70
2017-12-10T04:19:36.065Z,2.70
2017-12-10T04:22:04.202Z,2.72
2017-12-10T04:24:32.279Z,2.55
2017-12-10T04:27:00.353Z,2.85
2017-12-10T04:29:28.456Z,2.95
2017-12-10T04:31:56.544Z,2.75
2017-12-10T04:34:24.636Z,3.12
2017-12-10T04:36:52.736Z,3.42
2017-12-10T04:39:20.802Z,2.87
2017-12-10T04:41:48.904Z,2.67
2017-12-10T04:44:17.230Z,3.97
2017-12-10T04:46:45.348Z,3.03
2017-12-10T04:49:13.476Z,2.25
2017-12-10T04:51:41.578Z,3.03
2017-12-10T04:54:09.637Z,3.85
2017-12-10T04:56:38.479Z,2.75
2017-12-10T04:59:06.593Z,3.10
2017-12-10T05:01:35.401Z,2.95
2017-12-10T05:04:03.508Z,2.60
2017-12-10T05:06:31.592Z,2.90
2017-12-10T05:08:59.641Z,2.40
2017-12-10T05:11:27.717Z,2.62
2017-12-10T05:13:56.741Z,2.83
2017-12-10T05:16:25.664Z,2.50
2017-12-10T05:18:54.512Z,2.60
2017-12-10T05:21:22.562Z,2.50
2017-12-10T05:23:50.631Z,3.03
2017-12-10T05:26:18.695Z,3.17
2017-12-10T05:28:46.770Z,2.80
2017-12-10T05:31:14.902Z,3.95
2017-12-10T05:33:43.748Z,2.75
2017-12-10T05:36:11.821Z,3.47
2017-12-10T05:38:40.180Z,2.65
2017-12-10T05:41:08.471Z,2.15
2017-12-10T05:43:36.811Z,3.25
2017-12-10T05:46:06.646Z,3.17
2017-12-10T05:48:34.702Z,3.12
2017-12-10T05:51:02.808Z,2.47
2017-12-10T05:53:31.025Z,3.80
2017-12-10T05:55:59.869Z,2.35
2017-12-10T05:58:28.794Z,2.40
2017-12-10T06:00:56.891Z,2.53
2017-12-10T06:03:24.945Z,2.97
2017-12-10T06:05:53.148Z,2.37
2017-12-10T06:08:21.246Z,2.72
2017-12-10T06:10:49.436Z,2.87
2017-12-10T06:13:17.637Z,3.15
2017-12-10T06:15:45.790Z,3.17
2017-12-10T06:18:14.800Z,2.65
2017-12-10T06:20:42.918Z,2.58
2017-12-10T06:23:11.102Z,3.30
2017-12-10T06:25:39.201Z,3.45
2017-12-10T06:28:07.950Z,2.40
2017-12-10T06:30:36.046Z,2.70
2017-12-10T06:33:04.113Z,2.92
2017-12-10T06:35:33.182Z,2.87
2017-12-10T06:38:01.550Z,3.00
2017-12-10T06:40:29.653Z,3.03
2017-12-10T06:42:58.566Z,2.67
2017-12-10T06:45:26.681Z,2.47
2017-12-10T06:47:55.888Z,2.95
2017-12-10T06:50:25.140Z,3.08
2017-12-10T06:52:53.214Z,3.05
2017-12-10T06:55:21.276Z,3.00
2017-12-10T06:57:50.365Z,2.85
2017-12-10T07:00:18.469Z,3.25
2017-12-10T07:02:46.527Z,3.37
2017-12-10T07:05:14.602Z,3.37
2017-12-10T07:07:42.640Z,2.62
2017-12-10T07:10:10.723Z,3.15
2017-12-10T07:12:38.811Z,3.00
2017-12-10T07:15:06.897Z,2.95
2017-12-10T07:17:34.978Z,2.70
2017-12-10T07:20:03.313Z,2.62
2017-12-10T07:22:31.380Z,3.10
2017-12-10T07:24:59.505Z,2.42
2017-12-10T07:27:28.481Z,3.00
2017-12-10T07:29:57.358Z,2.83
2017-12-10T07:32:25.451Z,3.30
2017-12-10T07:34:53.567Z,3.75
2017-12-10T07:37:21.661Z,3.50
2017-12-10T07:39:49.745Z,3.10
2017-12-10T07:42:18.413Z,3.25
2017-12-10T07:44:46.880Z,3.25
2017-12-10T07:47:15.789Z,3.72
2017-12-10T07:49:44.657Z,3.65
2017-12-10T07:52:13.043Z,3.55
2017-12-10T07:54:42.045Z,4.45
2017-12-10T07:57:10.149Z,3.58
2017-12-10T07:59:38.193Z,4.22
2017-12-10T08:02:06.291Z,4.20
2017-12-10T08:04:34.444Z,3.50
2017-12-10T08:07:02.555Z,4.43
2017-12-10T08:09:30.697Z,3.60
2017-12-10T08:11:59.690Z,3.22
2017-12-10T08:14:27.854Z,3.92
2017-12-10T08:16:55.913Z,3.92
2017-12-10T08:19:23.996Z,4.70
2017-12-10T08:21:52.090Z,5.10
2017-12-10T08:24:20.192Z,3.87
2017-12-10T08:26:49.088Z,4.05
2017-12-10T08:29:17.905Z,4.95
2017-12-10T08:31:45.935Z,4.40
2017-12-10T08:34:14.093Z,4.97
2017-12-10T08:36:42.192Z,4.90
2017-12-10T08:39:11.050Z,4.67
2017-12-10T08:41:39.133Z,4.20
2017-12-10T08:44:07.244Z,3.77
2017-12-10T08:46:35.369Z,3.60
2017-12-10T08:49:03.475Z,3.73
2017-12-10T08:51:32.325Z,3.67
2017-12-10T08:54:00.428Z,3.00
2017-12-10T08:56:29.305Z,2.90
2017-12-10T08:58:57.409Z,3.27
2017-12-10T09:01:26.289Z,2.73
2017-12-10T09:03:55.098Z,2.90
2017-12-10T09:06:23.186Z,3.63
2017-12-10T09:08:51.242Z,4.00
2017-12-10T09:11:19.359Z,3.63
2017-12-10T09:13:47.429Z,3.77
2017-12-10T09:16:15.556Z,3.50
2017-12-10T09:18:43.676Z,2.60
2017-12-10T09:21:11.758Z,3.30
2017-12-10T09:23:39.828Z,3.57
2017-12-10T09:26:07.921Z,2.93
2017-12-10T09:28:36.782Z,2.80
2017-12-10T09:31:04.866Z,2.73
2017-12-10T09:33:33.439Z,2.87
2017-12-10T09:36:01.516Z,2.80
2017-12-10T09:38:29.603Z,3.57
2017-12-10T09:40:57.701Z,2.87
2017-12-10T09:43:26.551Z,3.40
2017-12-10T09:45:54.637Z,2.97
2017-12-10T09:48:22.837Z,2.60
2017-12-10T09:50:50.968Z,3.07
2017-12-10T09:53:19.053Z,3.10
2017-12-10T09:55:47.153Z,2.60
2017-12-10T09:58:16.064Z,4.97
2017-12-10T10:00:44.146Z,2.73
2017-12-10T10:03:12.256Z,3.33
2017-12-10T10:05:40.330Z,2.97
2017-12-10T10:08:08.437Z,2.50
2017-12-10T10:10:37.298Z,2.33
2017-12-10T10:13:05.724Z,3.07
2017-12-10T10:15:34.282Z,2.43
2017-12-10T10:18:03.229Z,3.10
2017-12-10T10:20:32.209Z,2.80
2017-12-10T10:23:00.337Z,2.60
2017-12-10T10:25:29.198Z,2.80
2017-12-10T10:27:57.311Z,3.00
2017-12-10T10:30:26.414Z,2.50
2017-12-10T10:32:54.531Z,2.87
2017-12-10T10:35:22.612Z,2.50
2017-12-10T10:37:50.749Z,3.93
2017-12-10T10:40:18.861Z,2.17
2017-12-10T10:42:46.991Z,2.50
2017-12-10T10:45:15.096Z,3.10
2017-12-10T10:47:43.226Z,2.40
2017-12-10T10:50:12.130Z,2.57
2017-12-10T10:52:40.225Z,2.47
2017-12-10T10:55:09.251Z,2.57
2017-12-10T10:57:38.426Z,3.07
2017-12-10T11:00:06.540Z,2.30
2017-12-10T11:02:35.433Z,2.90
2017-12-10T11:05:04.306Z,2.17
2017-12-10T11:07:32.408Z,2.60
2017-12-10T11:10:00.552Z,2.00
2017-12-10T11:12:28.626Z,1.97
2017-12-10T11:14:57.829Z,2.30
2017-12-10T11:17:26.729Z,2.10
2017-12-10T11:19:55.605Z,2.53
2017-12-10T11:22:25.075Z,2.10
2017-12-10T11:24:56.161Z,2.83
2017-12-10T11:27:25.037Z,2.17
2017-12-10T11:29:53.133Z,2.47
2017-12-10T11:32:24.261Z,2.50
2017-12-10T11:34:52.353Z,2.40
2017-12-10T11:37:22.037Z,1.97
2017-12-10T11:39:50.507Z,2.23
2017-12-10T11:42:18.649Z,1.80
2017-12-10T11:44:46.720Z,1.70
2017-12-10T11:47:14.821Z,2.60
2017-12-10T11:49:42.894Z,2.13
2017-12-10T11:52:11.776Z,3.07
2017-12-10T11:54:40.757Z,2.27
2017-12-10T11:57:09.616Z,2.00
2017-12-10T11:59:38.547Z,2.10
2017-12-10T12:02:06.653Z,2.00
2017-12-10T12:04:35.502Z,2.20
2017-12-10T12:07:04.337Z,1.97
2017-12-10T12:09:33.226Z,1.73
2017-12-10T12:12:02.378Z,1.70
2017-12-10T12:14:30.965Z,1.70
2017-12-10T12:16:59.965Z,1.50
2017-12-10T12:19:28.062Z,1.60
2017-12-10T12:21:57.214Z,2.07
2017-12-10T12:24:26.133Z,1.73
2017-12-10T12:26:54.352Z,2.15
2017-12-10T12:29:23.218Z,2.57
2017-12-10T12:31:51.404Z,2.10
2017-12-10T12:34:20.266Z,3.00
2017-12-10T12:36:48.597Z,2.07
2017-12-10T12:39:16.658Z,2.20
2017-12-10T12:41:44.777Z,2.20
2017-12-10T12:44:12.842Z,2.10
2017-12-10T12:46:40.968Z,2.03
2017-12-10T12:49:10.742Z,1.90
2017-12-10T12:51:38.817Z,2.50
2017-12-10T12:54:07.152Z,2.07
2017-12-10T12:56:35.865Z,2.13
2017-12-10T12:59:03.997Z,3.40
2017-12-10T13:01:32.120Z,2.13
2017-12-10T13:04:00.210Z,2.23
2017-12-10T13:06:28.341Z,1.97
2017-12-10T13:08:57.206Z,1.90
2017-12-10T13:11:25.351Z,2.37
2017-12-10T13:13:53.477Z,2.17
2017-12-10T13:16:22.442Z,2.17
2017-12-10T13:18:50.801Z,2.27
2017-12-10T13:21:18.965Z,2.80
2017-12-10T13:23:47.729Z,2.10
2017-12-10T13:26:16.029Z,1.77
2017-12-10T13:28:44.117Z,2.27
2017-12-10T13:31:12.993Z,2.00
2017-12-10T13:33:41.085Z,1.80
2017-12-10T13:36:09.917Z,1.67
2017-12-10T13:38:38.030Z,2.40
2017-12-10T13:41:06.141Z,1.80
2017-12-10T13:43:34.222Z,2.43
2017-12-10T13:46:02.362Z,2.20
2017-12-10T13:48:32.143Z,1.93
2017-12-10T13:51:00.263Z,6.27
2017-12-10T13:53:28.731Z,10.70
2017-12-10T13:55:57.537Z,9.87
2017-12-10T13:58:25.723Z,10.57
2017-12-10T14:00:53.801Z,20.20
2017-12-10T14:03:21.903Z,13.03
2017-12-10T14:05:50.030Z,16.57
2017-12-10T14:08:18.275Z,13.23
2017-12-10T14:10:47.161Z,11.45
2017-12-10T14:13:15.339Z,18.37
2017-12-10T14:15:44.258Z,15.90
2017-12-10T14:18:12.389Z,24.30
2017-12-10T14:20:40.737Z,28.73
2017-12-10T14:23:09.565Z,23.03
2017-12-10T14:25:38.005Z,15.13
2017-12-10T14:28:06.227Z,13.45
2017-12-10T14:30:35.968Z,16.80
2017-12-10T14:33:04.081Z,12.93
2017-12-10T14:35:32.140Z,17.10
2017-12-10T14:38:01.046Z,18.40
2017-12-10T14:40:29.670Z,15.13
2017-12-10T14:42:59.409Z,27.62
2017-12-10T14:45:27.529Z,16.30
2017-12-10T14:47:56.441Z,16.55
2017-12-10T14:50:26.258Z,17.35
2017-12-10T14:52:55.406Z,11.63
2017-12-10T14:55:23.498Z,14.20
2017-12-10T14:57:52.510Z,14.90
2017-12-10T15:00:21.388Z,14.15
2017-12-10T15:02:49.548Z,13.27
2017-12-10T15:05:17.645Z,16.10
2017-12-10T15:07:47.362Z,19.92
2017-12-10T15:10:16.238Z,14.68
2017-12-10T15:12:44.457Z,15.45
2017-12-10T15:15:12.520Z,17.25
2017-12-10T15:17:42.641Z,14.48
2017-12-10T15:20:10.765Z,13.50
2017-12-10T15:22:38.856Z,13.32
2017-12-10T15:25:07.015Z,15.13
2017-12-10T15:27:35.201Z,12.80
2017-12-10T15:30:03.605Z,12.25
2017-12-10T15:32:32.465Z,13.68
2017-12-10T15:35:00.557Z,12.98
2017-12-10T15:37:30.536Z,13.65
2017-12-10T15:39:58.710Z,14.82
2017-12-10T15:42:26.818Z,15.85
2017-12-10T15:44:55.728Z,18.40
2017-12-10T15:47:23.809Z,20.58
2017-12-10T15:49:51.870Z,21.60
2017-12-10T15:52:21.093Z,20.17
2017-12-10T15:54:49.238Z,19.42
2017-12-10T15:57:18.197Z,20.37
2017-12-10T15:59:46.279Z,18.90
2017-12-10T16:02:14.412Z,18.20
2017-12-10T16:04:42.446Z,18.37
2017-12-10T16:07:11.365Z,15.70
2017-12-10T16:09:40.052Z,16.12
2017-12-10T16:12:08.802Z,16.75
2017-12-10T16:14:37.209Z,17.08
2017-12-10T16:17:05.325Z,18.00
2017-12-10T16:19:33.445Z,18.25
2017-12-10T16:22:01.525Z,17.37
2017-12-10T16:24:29.622Z,17.65
2017-12-10T16:26:57.694Z,21.77
2017-12-10T16:29:25.856Z,29.73
2017-12-10T16:31:53.954Z,32.17
2017-12-10T16:34:22.039Z,57.13
2017-12-10T16:36:50.148Z,50.03
2017-12-10T16:39:19.897Z,98.45
2017-12-10T16:41:48.010Z,154.25
2017-12-10T16:44:16.865Z,53.80
2017-12-10T16:46:46.676Z,220.88
2017-12-10T16:49:14.816Z,55.65
2017-12-10T16:51:44.533Z,55.40
2017-12-10T16:54:12.628Z,28.67
2017-12-10T16:56:40.728Z,24.37
2017-12-10T16:59:09.478Z,21.00
2017-12-10T17:01:37.563Z,20.95
2017-12-10T17:04:05.689Z,32.38
2017-12-10T17:06:34.590Z,25.23
2017-12-10T17:09:03.513Z,26.65
2017-12-10T17:11:31.633Z,26.12
2017-12-10T17:14:00.158Z,32.25
2017-12-10T17:16:28.291Z,26.10
2017-12-10T17:18:57.410Z,19.73
2017-12-10T17:21:26.621Z,20.73
2017-12-10T17:23:54.749Z,22.50
2017-12-10T17:26:23.778Z,25.45
2017-12-10T17:28:51.945Z,24.92
2017-12-10T17:31:20.040Z,21.12
2017-12-10T17:33:49.015Z,22.30
2017-12-10T17:36:17.570Z,20.30
2017-12-10T17:38:45.681Z,18.50
2017-12-10T17:41:13.805Z,16.67
2017-12-10T17:43:41.958Z,20.65
2017-12-10T17:46:12.460Z,19.20
2017-12-10T17:48:41.409Z,20.80
2017-12-10T17:51:10.722Z,22.17
2017-12-10T17:53:39.604Z,16.75
2017-12-10T17:56:08.066Z,17.67
2017-12-10T17:58:36.156Z,17.48
2017-12-10T18:01:04.495Z,67.50
2017-12-10T18:03:32.605Z,63.63
2017-12-10T18:06:00.747Z,65.47
2017-12-10T18:08:29.673Z,60.92
2017-12-10T18:10:57.796Z,52.97
2017-12-10T18:13:25.908Z,38.75
2017-12-10T18:15:53.976Z,31.75
2017-12-10T18:18:22.094Z,42.30
2017-12-10T18:20:50.195Z,39.70
2017-12-10T18:23:18.309Z,55.63
2017-12-10T18:25:46.385Z,29.80
2017-12-10T18:28:15.241Z,34.63
2017-12-10T18:30:43.402Z,74.65
2017-12-10T18:33:12.432Z,130.77
2017-12-10T18:35:40.993Z,47.33
2017-12-10T18:38:10.070Z,40.42
2017-12-10T18:40:38.212Z,28.08
2017-12-10T18:43:06.320Z,25.30
2017-12-10T18:45:34.442Z,22.77
2017-12-10T18:48:03.311Z,26.23
2017-12-10T18:50:31.727Z,24.10
2017-12-10T18:53:00.906Z,20.67
2017-12-10T18:55:30.023Z,23.55
2017-12-10T18:57:58.656Z,31.05
2017-12-10T19:00:26.751Z,23.67
2017-12-10T19:02:55.697Z,23.92
2017-12-10T19:05:23.779Z,24.00
2017-12-10T19:07:51.889Z,27.58
2017-12-10T19:10:20.381Z,23.27
2017-12-10T19:12:49.245Z,24.02
2017-12-10T19:15:17.321Z,20.83
2017-12-10T19:17:45.413Z,22.95
2017-12-10T19:20:14.310Z,24.23
2017-12-10T19:22:44.178Z,24.87
2017-12-10T19:25:12.283Z,23.10
2017-12-10T19:27:40.368Z,28.58
2017-12-10T19:30:09.258Z,25.08
2017-12-10T19:32:39.122Z,24.10
2017-12-10T19:35:07.222Z,28.27
2017-12-10T19:37:35.450Z,31.33
2017-12-10T19:40:04.510Z,24.08
2017-12-10T19:42:33.417Z,23.45
2017-12-10T19:45:02.467Z,26.58
2017-12-10T19:47:30.533Z,25.40
2017-12-10T19:49:58.666Z,29.25
2017-12-10T19:52:26.719Z,25.27
2017-12-10T19:54:55.595Z,25.02
2017-12-10T19:57:23.689Z,25.42
2017-12-10T19:59:52.580Z,28.17
2017-12-10T20:02:20.697Z,26.65
2017-12-10T20:04:48.825Z,27.52
2017-12-10T20:07:17.879Z,29.52
2017-12-10T20:09:46.008Z,24.23
2017-12-10T20:12:14.206Z,27.42
2017-12-10T20:14:42.327Z,24.85
2017-12-10T20:17:11.734Z,24.67
2017-12-10T20:19:40.733Z,28.98
2017-12-10T20:22:09.623Z,25.40
2017-12-10T20:24:39.559Z,25.83
2017-12-10T20:27:08.466Z,23.45
2017-12-10T20:29:36.606Z,27.87
2017-12-10T20:32:05.725Z,25.33
2017-12-10T20:34:33.794Z,26.00
2017-12-10T20:37:02.782Z,23.35
2017-12-10T20:39:30.858Z,23.35
2017-12-10T20:41:59.923Z,23.75
2017-12-10T20:44:28.852Z,24.23
2017-12-10T20:46:57.810Z,21.60
2017-12-10T20:49:26.725Z,22.77
2017-12-10T20:51:54.849Z,22.98
2017-12-10T20:54:23.869Z,23.90
2017-12-10T20:56:53.124Z,25.48
2017-12-10T20:59:21.226Z,22.17
2017-12-10T21:01:49.309Z,23.38
2017-12-10T21:04:18.193Z,23.33
2017-12-10T21:06:46.332Z,25.60
2017-12-10T21:09:14.447Z,22.48
2017-12-10T21:11:43.326Z,23.52
2017-12-10T21:14:11.416Z,22.48
2017-12-10T21:16:40.290Z,23.87
2017-12-10T21:19:09.369Z,24.15
2017-12-10T21:21:37.485Z,22.83
2017-12-10T21:24:05.908Z,24.98
2017-12-10T21:26:34.013Z,27.52
2017-12-10T21:29:02.159Z,42.03
2017-12-10T21:31:30.209Z,135.00
2017-12-10T21:33:58.329Z,42.35
2017-12-10T21:36:26.449Z,28.85
2017-12-10T21:38:54.543Z,30.50
2017-12-10T21:41:22.665Z,43.58
2017-12-10T21:43:51.538Z,33.28
2017-12-10T21:46:19.630Z,30.98
2017-12-10T21:48:48.489Z,29.15
2017-12-10T21:51:16.566Z,28.02
2017-12-10T21:53:44.659Z,32.97
2017-12-10T21:56:13.520Z,33.67
2017-12-10T21:58:41.630Z,29.05
2017-12-10T22:01:10.464Z,28.30
2017-12-10T22:03:38.550Z,27.60
2017-12-10T22:06:06.575Z,28.05
2017-12-10T22:08:34.688Z,27.83
2017-12-10T22:11:02.821Z,25.70
2017-12-10T22:13:30.869Z,27.80
2017-12-10T22:15:59.702Z,28.50
2017-12-10T22:18:27.805Z,27.67
2017-12-10T22:20:55.910Z,28.70
2017-12-10T22:23:24.758Z,25.40
2017-12-10T22:25:52.830Z,26.30
2017-12-10T22:28:20.936Z,28.98
2017-12-10T22:30:49.795Z,26.17
2017-12-10T22:33:17.869Z,25.67
2017-12-10T22:35:46.930Z,26.20
2017-12-10T22:38:15.722Z,26.52
2017-12-10T22:40:43.802Z,27.10
2017-12-10T22:43:12.792Z,27.50
2017-12-10T22:45:40.809Z,26.90
2017-12-10T22:48:08.849Z,29.55
2017-12-10T22:50:36.932Z,28.98
2017-12-10T22:53:06.353Z,27.92
2017-12-10T22:55:35.543Z,26.08
2017-12-10T22:58:03.728Z,26.42
2017-12-10T23:00:33.557Z,27.33
2017-12-10T23:03:02.352Z,29.87
2017-12-10T23:05:31.148Z,26.77
2017-12-10T23:07:59.300Z,26.10
2017-12-10T23:10:29.190Z,26.65
2017-12-10T23:12:58.211Z,26.50
2017-12-10T23:15:27.242Z,24.55
2017-12-10T23:17:56.084Z,25.80
2017-12-10T23:20:27.057Z,26.67
2017-12-10T23:22:56.670Z,24.63
2017-12-10T23:25:26.089Z,24.23
2017-12-10T23:27:55.611Z,23.55
2017-12-10T23:30:23.800Z,24.65
2017-12-10T23:32:52.045Z,24.08
2017-12-10T23:35:20.167Z,24.55
2017-12-10T23:37:48.189Z,27.85
2017-12-10T23:40:16.296Z,23.58
2017-12-10T23:42:45.188Z,27.00
2017-12-10T23:45:13.921Z,23.40
2017-12-10T23:47:58.287Z,23.85
2017-12-10T23:50:27.220Z,25.33
2017-12-10T23:52:55.561Z,24.35
2017-12-10T23:55:24.433Z,21.67
2017-12-10T23:57:52.520Z,23.38
